Terminal Aerodrome Forecast
Issued by NWS

Home | Current Version | Previous Version | Text Only | Print | Product List | Glossary On
Versions: 1 2 3 4 5 6 7 8 9 10 11 12 13
000
FTUS45 KGJT 231727
TAFRIL
TAF
KRIL 231727Z 2318/2418 00000KT P6SM BKN250
     FM231900 30008KT P6SM FEW110 BKN250
     FM232100 29013KT P6SM FEW120 BKN250
     FM240200 29004KT P6SM FEW130 FEW250
     FM240600 VRB03KT P6SM SKC=

USA.gov is the U.S. government's official web portal to all federal, state and local government web resources and services.